Time,TemperatureF,DewpointF,PressureIn,WindDirection,WindDirectionDegrees,WindSpeedMPH,WindSpeedGustMPH,Humidity,HourlyPrecipIn,Conditions,Clouds,dailyrainin,SoftwareType,DateUTC
2013-11-01 00:13:00,42.6,38.0,29.60,WSW,250,0.0,-999.0,82,-99.99,,,0.00,weatherlink.com 1.10,2013-11-01 05:13:00,
2013-11-01 00:28:00,42.8,37.0,29.59,WSW,250,0.0,-999.0,81,-99.99,,,0.00,weatherlink.com 1.10,2013-11-01 05:28:00,
2013-11-01 00:43:00,42.6,37.0,29.60,WSW,250,0.0,-999.0,81,-99.99,,,0.00,weatherlink.com 1.10,2013-11-01 05:43:00,
2013-11-01 00:58:00,42.0,37.0,29.60,WSW,250,0.0,-999.0,82,-99.99,,,0.00,weatherlink.com 1.10,2013-11-01 05:58:00,
2013-11-01 01:13:00,41.4,37.0,29.60,WSW,250,0.0,-999.0,84,-99.99,,,0.00,weatherlink.com 1.10,2013-11-01 06:13:00,
2013-11-01 01:28:00,41.6,37.0,29.60,WSW,250,0.0,-999.0,84,-99.99,,,0.00,weatherlink.com 1.10,2013-11-01 06:28:00,
2013-11-01 01:43:00,42.1,38.0,29.61,WSW,250,0.0,-999.0,84,-99.99,,,0.00,weatherlink.com 1.10,2013-11-01 06:43:00,
2013-11-01 01:58:00,42.4,38.0,29.61,WSW,250,0.0,-999.0,83,-99.99,,,0.00,weatherlink.com 1.10,2013-11-01 06:58:00,
2013-11-01 02:14:00,42.3,38.0,29.62,WSW,247,0.0,-999.0,83,-99.99,,,0.00,weatherlink.com 1.10,2013-11-01 07:14:00,
2013-11-01 02:29:00,42.5,38.0,29.62,WSW,245,3.0,-999.0,84,-99.99,,,0.00,weatherlink.com 1.10,2013-11-01 07:29:00,
2013-11-01 02:44:00,42.8,38.0,29.63,SW,217,0.0,-999.0,84,-99.99,,,0.00,weatherlink.com 1.10,2013-11-01 07:44:00,
2013-11-01 02:59:00,42.7,38.0,29.63,SW,217,0.0,-999.0,84,-99.99,,,0.00,weatherlink.com 1.10,2013-11-01 07:59:00,
2013-11-01 03:14:00,42.3,38.0,29.64,SW,217,0.0,-999.0,84,-99.99,,,0.00,weatherlink.com 1.10,2013-11-01 08:14:00,
2013-11-01 03:29:00,41.6,38.0,29.64,SW,217,0.0,-999.0,86,-99.99,,,0.00,weatherlink.com 1.10,2013-11-01 08:29:00,
2013-11-01 03:44:00,41.1,38.0,29.65,SW,217,0.0,-999.0,87,-99.99,,,0.00,weatherlink.com 1.10,2013-11-01 08:44:00,
2013-11-01 03:59:00,41.1,38.0,29.65,SW,217,0.0,-999.0,88,-99.99,,,0.00,weatherlink.com 1.10,2013-11-01 08:59:00,
2013-11-01 04:14:00,41.3,38.0,29.65,SW,217,0.0,-999.0,88,-99.99,,,0.00,weatherlink.com 1.10,2013-11-01 09:14:00,
2013-11-01 04:29:00,40.7,37.0,29.66,SW,217,0.0,-999.0,87,-99.99,,,0.00,weatherlink.com 1.10,2013-11-01 09:29:00,
2013-11-01 04:44:00,40.0,37.0,29.66,SW,217,0.0,-999.0,89,-99.99,,,0.00,weatherlink.com 1.10,2013-11-01 09:44:00,
2013-11-01 04:59:00,40.4,38.0,29.68,SW,217,0.0,-999.0,90,-99.99,,,0.00,weatherlink.com 1.10,2013-11-01 09:59:00,
2013-11-01 05:14:00,40.8,38.0,29.68,SW,217,0.0,-999.0,89,-99.99,,,0.00,weatherlink.com 1.10,2013-11-01 10:14:00,
2013-11-01 05:29:00,40.5,37.0,29.69,SW,217,0.0,-999.0,87,-99.99,,,0.00,weatherlink.com 1.10,2013-11-01 10:29:00,
2013-11-01 05:44:00,39.7,37.0,29.68,SW,217,0.0,-999.0,89,-99.99,,,0.00,weatherlink.com 1.10,2013-11-01 10:44:00,
2013-11-01 05:59:00,39.8,37.0,29.69,SW,217,0.0,-999.0,90,-99.99,,,0.00,weatherlink.com 1.10,2013-11-01 10:59:00,
2013-11-01 06:14:00,38.8,35.0,29.70,SW,217,0.0,-999.0,86,-99.99,,,0.00,weatherlink.com 1.10,2013-11-01 11:14:00,
2013-11-01 06:29:00,38.0,35.0,29.70,SW,217,0.0,-999.0,90,-99.99,,,0.00,weatherlink.com 1.10,2013-11-01 11:29:00,
2013-11-01 06:44:00,39.2,37.0,29.71,SW,217,0.0,-999.0,92,-99.99,,,0.00,weatherlink.com 1.10,2013-11-01 11:44:00,
2013-11-01 06:59:00,39.5,37.0,29.71,SW,217,0.0,-999.0,91,-99.99,,,0.00,weatherlink.com 1.10,2013-11-01 11:59:00,
2013-11-01 07:14:00,39.3,37.0,29.72,SW,217,0.0,-999.0,90,-99.99,,,0.00,weatherlink.com 1.10,2013-11-01 12:14:00,
2013-11-01 07:29:00,39.5,37.0,29.72,SW,217,0.0,-999.0,92,-99.99,,,0.00,weatherlink.com 1.10,2013-11-01 12:29:00,
2013-11-01 07:44:00,40.7,38.0,29.72,SW,218,0.0,-999.0,90,-99.99,,,0.00,weatherlink.com 1.10,2013-11-01 12:44:00,
2013-11-01 07:59:00,41.1,38.0,29.73,SW,218,0.0,-999.0,89,-99.99,,,0.00,weatherlink.com 1.10,2013-11-01 12:59:00,
2013-11-01 08:14:00,41.3,38.0,29.74,SW,218,0.0,-999.0,88,-99.99,,,0.00,weatherlink.com 1.10,2013-11-01 13:14:00,
2013-11-01 08:29:00,41.9,39.0,29.75,SSW,209,0.0,-999.0,88,-99.99,,,0.00,weatherlink.com 1.10,2013-11-01 13:29:00,
2013-11-01 08:44:00,42.1,39.0,29.75,SSW,209,1.0,-999.0,87,-99.99,,,0.00,weatherlink.com 1.10,2013-11-01 13:44:00,
2013-11-01 08:59:00,42.4,39.0,29.76,SSW,209,0.0,-999.0,87,-99.99,,,0.00,weatherlink.com 1.10,2013-11-01 13:59:00,
2013-11-01 09:14:00,43.1,40.0,29.76,SSW,209,0.0,-999.0,87,-99.99,,,0.00,weatherlink.com 1.10,2013-11-01 14:14:00,
2013-11-01 09:29:00,44.2,40.0,29.77,SSW,209,1.0,-999.0,86,-99.99,,,0.00,weatherlink.com 1.10,2013-11-01 14:29:00,
2013-11-01 09:44:00,45.5,41.0,29.78,SW,234,0.0,-999.0,83,-99.99,,,0.00,weatherlink.com 1.10,2013-11-01 14:44:00,
2013-11-01 10:00:00,46.5,41.0,29.78,NW,325,0.0,-999.0,82,-99.99,,,0.00,weatherlink.com 1.10,2013-11-01 15:00:00,
2013-11-01 10:15:00,48.5,43.0,29.78,NNW,334,0.0,-999.0,80,-99.99,,,0.00,weatherlink.com 1.10,2013-11-01 15:15:00,
2013-11-01 10:30:00,49.3,43.0,29.79,NW,323,1.0,-999.0,78,-99.99,,,0.00,weatherlink.com 1.10,2013-11-01 15:30:00,
2013-11-01 10:45:00,51.1,43.0,29.79,NNW,348,5.0,-999.0,75,-99.99,,,0.00,weatherlink.com 1.10,2013-11-01 15:45:00,
2013-11-01 11:00:00,51.8,43.0,29.79,WNW,293,3.0,-999.0,73,-99.99,,,0.00,weatherlink.com 1.10,2013-11-01 16:00:00,
2013-11-01 11:15:00,52.0,43.0,29.79,West,281,0.0,-999.0,72,-99.99,,,0.00,weatherlink.com 1.10,2013-11-01 16:15:00,
2013-11-01 11:30:00,52.9,44.0,29.79,North,355,2.0,-999.0,72,-99.99,,,0.00,weatherlink.com 1.10,2013-11-01 16:30:00,
2013-11-01 11:45:00,54.3,45.0,29.80,West,260,1.0,-999.0,70,-99.99,,,0.00,weatherlink.com 1.10,2013-11-01 16:45:00,
2013-11-01 12:00:00,55.7,45.0,29.79,NW,306,5.0,-999.0,67,-99.99,,,0.00,weatherlink.com 1.10,2013-11-01 17:00:00,
2013-11-01 12:15:00,56.7,45.0,29.80,NW,310,9.0,-999.0,65,-99.99,,,0.00,weatherlink.com 1.10,2013-11-01 17:15:00,
2013-11-01 12:30:00,57.4,45.0,29.80,NW,321,6.0,-999.0,63,-99.99,,,0.00,weatherlink.com 1.10,2013-11-01 17:30:00,
2013-11-01 12:45:00,58.2,44.0,29.80,WNW,293,6.0,-999.0,60,-99.99,,,0.00,weatherlink.com 1.10,2013-11-01 17:45:00,
2013-11-01 13:00:00,58.4,43.0,29.80,WNW,294,4.0,-999.0,57,-99.99,,,0.00,weatherlink.com 1.10,2013-11-01 18:00:00,
2013-11-01 13:15:00,59.4,43.0,29.80,NNW,346,0.0,-999.0,56,-99.99,,,0.00,weatherlink.com 1.10,2013-11-01 18:15:00,
2013-11-01 13:30:00,59.4,43.0,29.80,NNW,334,2.0,-999.0,54,-99.99,,,0.00,weatherlink.com 1.10,2013-11-01 18:30:00,
2013-11-01 13:45:00,59.7,42.0,29.80,North,360,9.0,-999.0,53,-99.99,,,0.00,weatherlink.com 1.10,2013-11-01 18:45:00,
2013-11-01 14:00:00,60.8,42.0,29.80,NW,321,13.0,-999.0,51,-99.99,,,0.00,weatherlink.com 1.10,2013-11-01 19:00:00,
2013-11-01 14:15:00,59.1,42.0,29.80,West,263,1.0,-999.0,53,-99.99,,,0.00,weatherlink.com 1.10,2013-11-01 19:15:00,
2013-11-01 14:30:00,59.4,42.0,29.80,North,11,4.0,-999.0,52,-99.99,,,0.00,weatherlink.com 1.10,2013-11-01 19:30:00,
2013-11-01 14:46:00,60.3,42.0,29.80,NNW,327,0.0,-999.0,51,-99.99,,,0.00,weatherlink.com 1.10,2013-11-01 19:46:00,
2013-11-01 15:01:00,60.9,41.0,29.80,NW,318,5.0,-999.0,49,-99.99,,,0.00,weatherlink.com 1.10,2013-11-01 20:01:00,
2013-11-01 15:16:00,61.3,40.0,29.79,WSW,254,1.0,-999.0,46,-99.99,,,0.00,weatherlink.com 1.10,2013-11-01 20:16:00,
2013-11-01 15:31:00,60.3,40.0,29.80,West,281,1.0,-999.0,47,-99.99,,,0.00,weatherlink.com 1.10,2013-11-01 20:31:00,
2013-11-01 15:46:00,60.4,39.0,29.80,WNW,302,4.0,-999.0,46,-99.99,,,0.00,weatherlink.com 1.10,2013-11-01 20:46:00,
2013-11-01 16:01:00,60.5,39.0,29.80,NW,307,5.0,-999.0,45,-99.99,,,0.00,weatherlink.com 1.10,2013-11-01 21:01:00,
2013-11-01 16:16:00,58.6,38.0,29.80,WNW,301,0.0,-999.0,47,-99.99,,,0.00,weatherlink.com 1.10,2013-11-01 21:16:00,
2013-11-01 16:31:00,57.8,39.0,29.81,WNW,299,0.0,-999.0,50,-99.99,,,0.00,weatherlink.com 1.10,2013-11-01 21:31:00,
2013-11-01 16:46:00,57.8,40.0,29.82,SSW,192,0.0,-999.0,52,-99.99,,,0.00,weatherlink.com 1.10,2013-11-01 21:46:00,
2013-11-01 17:01:00,56.3,41.0,29.82,WSW,255,1.0,-999.0,56,-99.99,,,0.00,weatherlink.com 1.10,2013-11-01 22:01:00,
2013-11-01 17:16:00,55.8,41.0,29.82,West,279,0.0,-999.0,58,-99.99,,,0.00,weatherlink.com 1.10,2013-11-01 22:16:00,
2013-11-01 17:30:00,55.1,42.0,29.86,North,350,11.0,-999.0,61,-99.99,,,0.00,weatherlink.com 1.10,2013-11-01 22:30:00,
2013-11-01 17:45:00,50.8,43.0,29.86,NNW,329,5.0,-999.0,74,-99.99,,,0.00,weatherlink.com 1.10,2013-11-01 22:45:00,
2013-11-01 18:00:00,49.2,43.0,29.86,WNW,291,0.0,-999.0,78,-99.99,,,0.00,weatherlink.com 1.10,2013-11-01 23:00:00,
2013-11-01 18:15:00,48.4,42.0,29.86,WNW,298,3.0,-999.0,79,-99.99,,,0.00,weatherlink.com 1.10,2013-11-01 23:15:00,
2013-11-01 18:30:00,48.0,42.0,29.87,West,271,0.0,-999.0,79,-99.99,,,0.01,weatherlink.com 1.10,2013-11-01 23:30:00,
2013-11-01 18:45:00,47.7,41.0,29.88,NW,308,4.0,-999.0,78,-99.99,,,0.01,weatherlink.com 1.10,2013-11-01 23:45:00,
2013-11-01 19:00:00,47.8,41.0,29.89,NW,315,4.0,-999.0,78,-99.99,,,0.01,weatherlink.com 1.10,2013-11-02 00:00:00,
2013-11-01 19:15:00,47.7,41.0,29.89,West,274,0.0,-999.0,78,-99.99,,,0.01,weatherlink.com 1.10,2013-11-02 00:15:00,
2013-11-01 19:30:00,47.4,41.0,29.90,WNW,289,1.0,-999.0,79,-99.99,,,0.01,weatherlink.com 1.10,2013-11-02 00:30:00,
2013-11-01 19:45:00,47.2,41.0,29.90,WNW,289,1.0,-999.0,80,-99.99,,,0.01,weatherlink.com 1.10,2013-11-02 00:45:00,
2013-11-01 20:00:00,47.1,41.0,29.91,SW,227,2.0,-999.0,80,-99.99,,,0.01,weatherlink.com 1.10,2013-11-02 01:00:00,
2013-11-01 20:16:00,47.6,40.0,29.92,NW,324,3.0,-999.0,76,-99.99,,,0.01,weatherlink.com 1.10,2013-11-02 01:16:00,
2013-11-01 20:31:00,47.8,40.0,29.93,NW,305,5.0,-999.0,75,-99.99,,,0.01,weatherlink.com 1.10,2013-11-02 01:31:00,
2013-11-01 20:46:00,47.8,41.0,29.93,West,265,6.0,-999.0,76,-99.99,,,0.01,weatherlink.com 1.10,2013-11-02 01:46:00,
2013-11-01 21:01:00,47.8,41.0,29.94,NW,306,5.0,-999.0,76,-99.99,,,0.01,weatherlink.com 1.10,2013-11-02 02:01:00,
2013-11-01 21:16:00,47.6,41.0,29.94,NW,317,2.0,-999.0,78,-99.99,,,0.01,weatherlink.com 1.10,2013-11-02 02:16:00,
2013-11-01 21:31:00,47.4,41.0,29.95,North,350,2.0,-999.0,78,-99.99,,,0.01,weatherlink.com 1.10,2013-11-02 02:31:00,
2013-11-01 21:46:00,47.4,41.0,29.95,WNW,284,0.0,-999.0,79,-99.99,,,0.01,weatherlink.com 1.10,2013-11-02 02:46:00,
2013-11-01 22:01:00,47.4,41.0,29.96,WSW,256,5.0,-999.0,78,-99.99,,,0.01,weatherlink.com 1.10,2013-11-02 03:01:00,
2013-11-01 22:16:00,47.6,41.0,29.96,West,264,4.0,-999.0,78,-99.99,,,0.01,weatherlink.com 1.10,2013-11-02 03:16:00,
2013-11-01 22:31:00,47.5,41.0,29.96,WNW,291,0.0,-999.0,78,-99.99,,,0.01,weatherlink.com 1.10,2013-11-02 03:31:00,
2013-11-01 22:46:00,47.4,41.0,29.98,West,275,3.0,-999.0,78,-99.99,,,0.01,weatherlink.com 1.10,2013-11-02 03:46:00,
2013-11-01 23:01:00,47.3,41.0,29.98,West,281,1.0,-999.0,79,-99.99,,,0.01,weatherlink.com 1.10,2013-11-02 04:01:00,
2013-11-01 23:16:00,47.1,41.0,29.98,West,276,2.0,-999.0,80,-99.99,,,0.01,weatherlink.com 1.10,2013-11-02 04:16:00,
2013-11-01 23:31:00,47.0,41.0,29.99,West,271,0.0,-999.0,80,-99.99,,,0.01,weatherlink.com 1.10,2013-11-02 04:31:00,
2013-11-01 23:46:00,47.0,41.0,29.98,WNW,302,0.0,-999.0,80,-99.99,,,0.01,weatherlink.com 1.10,2013-11-02 04:46:00,